Historique des mesures à Cassis (13260), France
Quotidien Résumé Juin 26, 2017 Unités:  Métrique    US   Métrique/US
« Précédent (Jour)
Suivant (Jour) »
Quotidien Hebdomadaire Mensuel Annuel Période au choix
  Maximum: Minimum: Moyenne:
Température: TemperatureC °C 22.9 °C 24.8 °C
Point de rosée: DewpointC °C 14.9 °C 18.1 °C
Humidité: Humidity % 60 % 63 %
Vitesse du vent: 0 km/h 0 km/h 3.9 km/h
Rafales: 0 km/h - -
Vent:- - SE
Pression: PressurehPa hPa 1005.3 hPa -
Précipitations: 0.0 mm    
Historical Graphs
 
 
Mesures pour : Juin 26, 2017
Heure Temperature Point de rosée Pression Vent Vitesse du vent Rafales Humidité Pluie (par heure) Conditions
TemperatureC °C DewpointC °C PressurehPa hPa Calm     Humidity % HourlyPrecipMM mm SoftwareType W/m2
00:10 24.3 °C 17.8 °C 1008.7 hPa WSW 10.3 km/h 13.2 km/h 67 % 0.0 mm open2300-1.11 W/m2
01:11 24.3 °C 17.1 °C 1008.7 hPa WNW 16.3 km/h 20.3 km/h 64 % 0.0 mm open2300-1.11 W/m2
02:10 23.9 °C 16.9 °C 1008.0 hPa North 6.4 km/h 16.9 km/h 65 % 0.0 mm open2300-1.11 W/m2
03:10 23.3 °C 15.8 °C 1008.0 hPa Calm   2.9 km/h 63 % 0.0 mm open2300-1.11 W/m2
04:11 23.3 °C 16.3 °C 1007.3 hPa Calm     65 % 0.0 mm open2300-1.11 W/m2
05:10 23.2 °C 15.7 °C 1007.3 hPa NNE 2.9 km/h 2.9 km/h 63 % 0.0 mm open2300-1.11 W/m2
06:11 22.9 °C 14.9 °C 1007.3 hPa Calm   4.2 km/h 61 % 0.0 mm open2300-1.11 W/m2
07:10 23.2 °C 15.7 °C 1007.7 hPa Calm   2.9 km/h 63 % 0.0 mm open2300-1.11 W/m2
08:11 24.2 °C 16.7 °C 1008.4 hPa SE 1.8 km/h 5.6 km/h 63 % 0.0 mm open2300-1.11 W/m2
09:10 24.9 °C 17.6 °C 1009.4 hPa SW 9.8 km/h 12.2 km/h 64 % 0.0 mm open2300-1.11 W/m2
10:10 26.3 °C 19.9 °C 1009.4 hPa West 2.3 km/h 5.1 km/h 68 % 0.0 mm open2300-1.11 W/m2
11:10 28.9 °C 21.7 °C 1009.4 hPa WSW 2.3 km/h 8 km/h 65 % 0.0 mm open2300-1.11 W/m2
12:11 27.1 °C 20.9 °C 1009.4 hPa Calm   4.2 km/h 69 % 0.0 mm open2300-1.11 W/m2
13:10 25.9 °C 20.4 °C 1008.7 hPa NE 23 km/h 23 km/h 72 % 0.0 mm open2300-1.11 W/m2
14:10 26.7 °C 20.6 °C 1007.3 hPa Calm   6.4 km/h 69 % 0.0 mm open2300-1.11 W/m2
15:10 29.9 °C 21.6 °C 1006.0 hPa ESE 1.8 km/h 8.9 km/h 61 % 0.0 mm open2300-1.11 W/m2
16:10 29.7 °C 21.1 °C 1006.0 hPa Calm   2.3 km/h 60 % 0.0 mm open2300-1.11 W/m2
17:10 28.3 °C 20.8 °C 1006.0 hPa North 1.8 km/h 1.8 km/h 64 % 0.0 mm open2300-1.11 W/m2
18:10 28.8 °C 21.3 °C 1006.0 hPa Calm   6.4 km/h 64 % 0.0 mm open2300-1.11 W/m2
19:10 27.4 °C 20.7 °C 1006.3 hPa Calm   1.8 km/h 67 % 0.0 mm open2300-1.11 W/m2
20:10 26.5 °C 20.6 °C 1006.3 hPa Calm     70 % 0.0 mm open2300-1.11 W/m2
21:10 25.8 °C 20.1 °C 1005.3 hPa Calm   4.2 km/h 71 % 0.0 mm open2300-1.11 W/m2
22:10 25.8 °C 19.4 °C 1005.3 hPa East 9.8 km/h 9.8 km/h 68 % 0.0 mm open2300-1.11 W/m2
23:10 25.4 °C 19.6 °C 1005.3 hPa SE 6.4 km/h 6.4 km/h 70 % 0.0 mm open2300-1.11 W/m2
Observations météo à CASSIS
WU-History script by Weather Underground - 1 mb